createdAt,value
2023-05-20T00:00:02.012Z,5.55
2023-05-20T00:02:05.630Z,3.15
2023-05-20T00:04:09.611Z,3.78
2023-05-20T00:06:13.465Z,4.90
2023-05-20T00:08:17.839Z,6.10
2023-05-20T00:10:23.855Z,4.00
2023-05-20T00:12:27.547Z,3.00
2023-05-20T00:14:31.493Z,4.10
2023-05-20T00:16:35.332Z,3.13
2023-05-20T00:18:39.493Z,3.72
2023-05-20T00:20:44.032Z,2.70
2023-05-20T00:22:47.976Z,2.67
2023-05-20T00:24:51.947Z,3.22
2023-05-20T00:26:57.175Z,4.85
2023-05-20T00:29:01.473Z,3.97
2023-05-20T00:31:05.272Z,4.18
2023-05-20T00:33:08.923Z,6.88
2023-05-20T00:35:13.319Z,3.22
2023-05-20T00:37:16.930Z,4.95
2023-05-20T00:39:20.746Z,2.60
2023-05-20T00:42:21.792Z,3.85
2023-05-20T00:44:52.615Z,3.08
2023-05-20T00:47:16.367Z,3.65
2023-05-20T00:49:21.194Z,3.60
2023-05-20T00:51:25.003Z,3.13
2023-05-20T00:53:28.559Z,4.95
2023-05-20T00:55:32.322Z,3.38
2023-05-20T00:57:36.131Z,3.50
2023-05-20T00:59:42.848Z,3.03
2023-05-20T01:01:48.601Z,4.00
2023-05-20T01:03:52.482Z,2.95
2023-05-20T01:05:56.331Z,2.70
2023-05-20T01:07:59.961Z,3.72
2023-05-20T01:10:04.435Z,3.90
2023-05-20T01:12:10.668Z,2.50
2023-05-20T01:14:14.529Z,3.83
2023-05-20T01:16:19.867Z,3.70
2023-05-20T01:18:25.576Z,4.15
2023-05-20T01:20:30.206Z,4.15
2023-05-20T01:22:35.549Z,4.65
2023-05-20T01:24:39.186Z,2.90
2023-05-20T01:26:42.975Z,3.60
2023-05-20T01:28:46.783Z,4.35
2023-05-20T01:30:52.334Z,3.40
2023-05-20T01:32:59.630Z,3.45
2023-05-20T01:35:03.310Z,4.15
2023-05-20T01:37:07.249Z,2.50
2023-05-20T01:39:12.749Z,5.55
2023-05-20T01:41:16.945Z,3.00
2023-05-20T01:43:20.849Z,2.90
2023-05-20T01:45:25.723Z,3.67
2023-05-20T01:47:30.356Z,3.58
2023-05-20T01:49:34.009Z,3.35
2023-05-20T01:51:38.372Z,4.60
2023-05-20T01:53:42.499Z,5.85
2023-05-20T01:55:50.318Z,4.63
2023-05-20T01:57:53.819Z,3.78
2023-05-20T01:59:57.828Z,4.18
2023-05-20T02:02:01.686Z,3.42
2023-05-20T02:04:05.503Z,4.72
2023-05-20T02:06:09.005Z,3.70
2023-05-20T02:10:13.206Z,3.40
2023-05-20T02:12:18.182Z,5.88
2023-05-20T02:14:21.932Z,3.55
2023-05-20T02:16:25.495Z,3.33
2023-05-20T02:18:35.653Z,3.28
2023-05-20T02:20:39.203Z,4.68
2023-05-20T02:22:43.074Z,4.38
2023-05-20T02:24:46.683Z,3.25
2023-05-20T02:26:53.918Z,4.30
2023-05-20T02:28:59.737Z,4.22
2023-05-20T02:31:03.746Z,3.03
2023-05-20T02:33:08.179Z,3.38
2023-05-20T02:35:11.865Z,3.85
2023-05-20T02:37:15.395Z,3.20
2023-05-20T02:39:19.410Z,3.22
2023-05-20T02:41:24.618Z,5.07
2023-05-20T02:43:28.475Z,5.00
2023-05-20T02:45:33.697Z,4.05
2023-05-20T02:47:40.859Z,4.60
2023-05-20T02:49:44.635Z,3.28
2023-05-20T02:51:48.264Z,4.13
2023-05-20T02:53:52.184Z,3.78
2023-05-20T02:55:56.044Z,4.53
2023-05-20T02:57:59.921Z,4.07
2023-05-20T03:00:05.241Z,5.07
2023-05-20T03:02:10.409Z,5.80
2023-05-20T03:04:14.500Z,3.42
2023-05-20T03:06:18.339Z,7.10
2023-05-20T03:08:23.234Z,4.65
2023-05-20T03:10:27.080Z,5.05
2023-05-20T03:12:31.085Z,4.47
2023-05-20T03:14:36.136Z,3.65
2023-05-20T03:16:39.870Z,3.47
2023-05-20T03:18:44.893Z,4.10
2023-05-20T03:20:48.646Z,4.28
2023-05-20T03:22:52.302Z,6.85
2023-05-20T03:24:57.374Z,4.93
2023-05-20T03:27:01.066Z,4.43
2023-05-20T03:29:04.535Z,4.93
2023-05-20T03:31:08.303Z,4.78
2023-05-20T03:33:12.124Z,4.78
2023-05-20T03:35:17.310Z,3.55
2023-05-20T03:37:20.854Z,3.53
2023-05-20T03:39:24.553Z,4.68
2023-05-20T03:41:29.434Z,6.57
2023-05-20T03:43:33.105Z,5.25
2023-05-20T03:45:36.928Z,7.35
2023-05-20T03:47:41.254Z,4.07
2023-05-20T03:49:44.974Z,5.45
2023-05-20T03:51:50.177Z,3.70
2023-05-20T03:53:53.808Z,3.70
2023-05-20T03:55:57.469Z,4.03
2023-05-20T03:58:02.098Z,6.50
2023-05-20T04:00:11.230Z,3.95
2023-05-20T04:02:14.942Z,4.65
2023-05-20T04:04:18.624Z,5.18
2023-05-20T04:06:22.758Z,4.20
2023-05-20T04:08:28.509Z,6.22
2023-05-20T04:10:32.959Z,4.95
2023-05-20T04:12:38.446Z,4.20
2023-05-20T04:14:43.231Z,4.43
2023-05-20T04:16:47.208Z,5.18
2023-05-20T04:18:50.985Z,5.25
2023-05-20T04:20:56.649Z,4.70
2023-05-20T04:23:00.317Z,5.70
2023-05-20T04:25:05.564Z,5.53
2023-05-20T04:27:09.753Z,9.75
2023-05-20T04:29:16.336Z,4.53
2023-05-20T04:31:21.554Z,5.93
2023-05-20T04:33:25.178Z,5.15
2023-05-20T04:35:29.670Z,4.97
2023-05-20T04:37:33.327Z,4.90
2023-05-20T04:39:37.161Z,5.40
2023-05-20T04:41:45.344Z,5.63
2023-05-20T04:43:50.106Z,5.28
2023-05-20T04:45:54.806Z,4.63
2023-05-20T04:47:58.344Z,4.50
2023-05-20T04:50:02.023Z,6.47
2023-05-20T04:52:06.526Z,4.20
2023-05-20T04:54:10.526Z,3.95
2023-05-20T04:56:15.828Z,6.30
2023-05-20T04:58:24.576Z,5.20
2023-05-20T05:00:28.433Z,4.78
2023-05-20T05:02:32.274Z,5.57
2023-05-20T05:04:36.272Z,5.05
2023-05-20T05:06:40.157Z,5.88
2023-05-20T05:08:44.107Z,5.55
2023-05-20T05:10:49.409Z,5.15
2023-05-20T05:12:53.326Z,4.65
2023-05-20T05:14:59.058Z,8.65
2023-05-20T05:17:02.623Z,5.68
2023-05-20T05:19:06.313Z,5.00
2023-05-20T05:21:10.041Z,4.28
2023-05-20T05:23:13.939Z,5.93
2023-05-20T05:25:20.785Z,6.35
2023-05-20T05:27:24.499Z,5.82
2023-05-20T05:29:28.548Z,5.07
2023-05-20T05:31:34.155Z,5.68
2023-05-20T05:33:39.338Z,4.93
2023-05-20T05:35:43.375Z,5.78
2023-05-20T05:37:47.084Z,4.22
2023-05-20T05:39:51.112Z,6.38
2023-05-20T05:41:56.461Z,7.35
2023-05-20T05:44:00.509Z,6.95
2023-05-20T05:46:05.426Z,5.05
2023-05-20T05:48:10.650Z,5.63
2023-05-20T05:50:14.189Z,5.53
2023-05-20T05:52:17.695Z,6.60
2023-05-20T05:54:21.566Z,5.72
2023-05-20T05:56:25.159Z,4.75
2023-05-20T05:58:29.161Z,6.38
2023-05-20T06:00:33.088Z,4.90
2023-05-20T06:02:37.117Z,5.45
2023-05-20T06:04:43.182Z,5.28
2023-05-20T06:06:47.513Z,5.13
2023-05-20T06:08:51.318Z,6.65
2023-05-20T06:10:55.123Z,5.63
2023-05-20T06:12:58.779Z,6.88
2023-05-20T06:15:02.779Z,5.53
2023-05-20T06:17:19.347Z,5.03
2023-05-20T06:19:23.445Z,7.72
2023-05-20T06:21:29.392Z,5.13
2023-05-20T06:23:33.351Z,5.55
2023-05-20T06:25:37.008Z,6.07
2023-05-20T06:27:40.531Z,10.07
2023-05-20T06:29:44.840Z,6.15
2023-05-20T06:31:48.537Z,6.32
2023-05-20T06:33:52.325Z,5.93
2023-05-20T06:35:56.515Z,5.75
2023-05-20T06:38:02.591Z,6.50
2023-05-20T06:40:07.806Z,5.80
2023-05-20T06:42:12.493Z,6.28
2023-05-20T06:44:16.770Z,6.60
2023-05-20T06:46:20.723Z,7.05
2023-05-20T06:48:24.800Z,6.10
2023-05-20T06:50:29.573Z,7.20
2023-05-20T06:52:33.632Z,6.00
2023-05-20T06:54:41.742Z,7.68
2023-05-20T06:56:46.240Z,6.88
2023-05-20T06:58:50.458Z,6.57
2023-05-20T07:00:54.270Z,6.55
2023-05-20T07:02:58.327Z,6.82
2023-05-20T07:05:02.142Z,8.27
2023-05-20T07:07:06.252Z,6.65
2023-05-20T07:09:10.379Z,6.22
2023-05-20T07:11:16.213Z,7.32
2023-05-20T07:13:20.267Z,7.20
2023-05-20T07:15:24.402Z,7.70
2023-05-20T07:17:30.158Z,9.25
2023-05-20T07:19:34.119Z,7.90
2023-05-20T07:21:38.087Z,6.93
2023-05-20T07:23:42.509Z,7.35
2023-05-20T07:25:46.262Z,6.85
2023-05-20T07:27:52.082Z,7.07
2023-05-20T07:29:55.804Z,7.68
2023-05-20T07:31:59.786Z,6.88
2023-05-20T07:34:04.019Z,10.63
2023-05-20T07:36:10.344Z,8.20
2023-05-20T07:38:14.793Z,7.82
2023-05-20T07:40:20.850Z,7.63
2023-05-20T07:42:24.348Z,6.80
2023-05-20T07:44:29.753Z,7.43
2023-05-20T07:46:34.168Z,7.65
2023-05-20T07:48:38.658Z,9.02
2023-05-20T07:50:42.575Z,8.05
2023-05-20T07:52:56.047Z,7.63
2023-05-20T07:55:00.634Z,8.25
2023-05-20T07:57:05.120Z,8.02
2023-05-20T07:59:09.186Z,7.15
2023-05-20T08:01:14.803Z,8.25
2023-05-20T08:03:19.759Z,8.90
2023-05-20T08:05:23.748Z,7.55
2023-05-20T08:07:27.647Z,6.88
2023-05-20T08:09:33.032Z,8.93
2023-05-20T08:11:38.004Z,8.65
2023-05-20T08:13:42.421Z,9.55
2023-05-20T08:15:48.716Z,7.85
2023-05-20T08:17:54.405Z,10.77
2023-05-20T08:19:58.257Z,8.80
2023-05-20T08:22:02.897Z,9.95
2023-05-20T08:24:10.288Z,8.68
2023-05-20T08:26:14.533Z,9.38
2023-05-20T08:28:18.572Z,8.02
2023-05-20T08:30:22.808Z,8.88
2023-05-20T08:32:26.699Z,10.18
2023-05-20T08:34:32.117Z,9.00
2023-05-20T08:36:36.171Z,8.65
2023-05-20T08:38:40.322Z,8.68
2023-05-20T08:40:43.971Z,9.15
2023-05-20T08:42:50.499Z,8.90
2023-05-20T08:44:54.780Z,11.02
2023-05-20T08:46:58.498Z,9.13
2023-05-20T08:49:02.969Z,8.38
2023-05-20T08:51:08.198Z,9.23
2023-05-20T08:53:12.282Z,9.10
2023-05-20T08:55:17.494Z,9.13
2023-05-20T08:57:21.755Z,8.68
2023-05-20T08:59:25.529Z,9.65
2023-05-20T09:01:29.167Z,9.60
2023-05-20T09:03:33.923Z,9.77
2023-05-20T09:05:38.436Z,9.93
2023-05-20T09:07:44.895Z,9.88
2023-05-20T09:09:48.652Z,9.50
2023-05-20T09:11:52.185Z,9.63
2023-05-20T09:13:56.372Z,9.50
2023-05-20T09:16:02.272Z,12.02
2023-05-20T09:18:06.714Z,9.00
2023-05-20T09:20:11.800Z,11.55
2023-05-20T09:22:15.725Z,9.13
2023-05-20T09:24:25.322Z,9.40
2023-05-20T09:26:30.191Z,9.40
2023-05-20T09:28:36.844Z,9.48
2023-05-20T09:30:40.712Z,9.57
2023-05-20T09:32:45.264Z,9.35
2023-05-20T09:34:50.176Z,11.57
2023-05-20T09:36:54.058Z,10.02
2023-05-20T09:39:00.660Z,9.68
2023-05-20T09:41:08.339Z,10.02
2023-05-20T09:43:12.576Z,9.60
2023-05-20T09:45:16.299Z,8.77
2023-05-20T09:47:20.132Z,7.95
2023-05-20T09:49:24.047Z,9.35
2023-05-20T09:51:28.071Z,9.73
2023-05-20T09:53:34.424Z,9.52
2023-05-20T09:55:38.319Z,9.00
2023-05-20T09:57:45.464Z,9.23
2023-05-20T09:59:49.845Z,9.82
2023-05-20T10:01:54.164Z,9.95
2023-05-20T10:03:58.589Z,9.77
2023-05-20T10:06:17.560Z,8.93
2023-05-20T10:08:36.053Z,8.85
2023-05-20T10:10:45.122Z,9.73
2023-05-20T10:12:55.626Z,9.25
2023-05-20T10:15:05.329Z,9.68
2023-05-20T10:17:13.043Z,9.38
2023-05-20T10:19:24.484Z,9.50
2023-05-20T10:21:29.446Z,9.85
2023-05-20T10:23:34.034Z,10.55
2023-05-20T10:25:38.628Z,9.30
2023-05-20T10:27:46.308Z,9.95
2023-05-20T10:29:54.313Z,9.73
2023-05-20T10:31:58.721Z,10.05
2023-05-20T10:34:03.146Z,10.07
2023-05-20T10:36:07.289Z,9.70
2023-05-20T10:38:12.768Z,9.63
2023-05-20T10:40:17.709Z,10.40
2023-05-20T10:42:30.430Z,10.30
2023-05-20T10:44:43.336Z,9.63
2023-05-20T10:47:06.610Z,9.57
2023-05-20T10:49:22.295Z,8.77
2023-05-20T10:51:29.025Z,8.93
2023-05-20T10:53:40.350Z,9.52
2023-05-20T10:55:51.859Z,9.27
2023-05-20T10:57:56.046Z,8.90
2023-05-20T11:00:01.201Z,9.98
2023-05-20T11:02:07.047Z,9.38
2023-05-20T11:04:12.588Z,10.25
2023-05-20T11:06:18.358Z,9.00
2023-05-20T11:08:28.998Z,9.77
2023-05-20T11:10:33.716Z,8.95
2023-05-20T11:12:37.885Z,8.98
2023-05-20T11:14:42.035Z,9.82
2023-05-20T11:16:46.444Z,9.52
2023-05-20T11:18:53.078Z,9.10
2023-05-20T11:20:57.183Z,8.80
2023-05-20T11:23:01.659Z,9.00
2023-05-20T11:25:10.059Z,9.57
2023-05-20T11:27:13.831Z,8.75
2023-05-20T11:29:19.060Z,9.20
2023-05-20T11:31:24.875Z,8.98
2023-05-20T11:33:29.629Z,8.18
2023-05-20T11:35:35.836Z,8.77
2023-05-20T11:37:39.756Z,10.50
2023-05-20T11:39:43.693Z,8.35
2023-05-20T11:41:47.490Z,8.32
2023-05-20T11:43:58.595Z,8.25
2023-05-20T11:46:02.745Z,8.07
2023-05-20T11:48:07.222Z,11.57
2023-05-20T11:50:13.035Z,8.55
2023-05-20T11:52:18.737Z,8.32
2023-05-20T11:54:24.631Z,9.25
2023-05-20T11:56:32.688Z,8.90
2023-05-20T11:58:36.770Z,9.07
2023-05-20T12:00:50.656Z,9.20
2023-05-20T12:02:57.311Z,10.80
2023-05-20T12:05:02.075Z,9.13
2023-05-20T12:07:09.799Z,9.50
2023-05-20T12:09:14.914Z,9.25
2023-05-20T12:11:18.455Z,8.80
2023-05-20T12:13:23.645Z,10.02
2023-05-20T12:15:27.319Z,9.45
2023-05-20T12:17:31.091Z,10.15
2023-05-20T12:19:36.306Z,10.25
2023-05-20T12:21:40.598Z,12.10
2023-05-20T12:23:44.661Z,9.63
2023-05-20T12:25:50.162Z,9.95
2023-05-20T12:27:53.782Z,11.40
2023-05-20T12:29:57.443Z,11.05
2023-05-20T12:32:01.860Z,10.70
2023-05-20T12:34:06.095Z,9.75
2023-05-20T12:36:09.703Z,10.43
2023-05-20T12:38:13.377Z,11.05
2023-05-20T12:40:19.822Z,10.73
2023-05-20T12:42:24.918Z,10.75
2023-05-20T12:44:28.924Z,9.93
2023-05-20T12:46:32.474Z,10.35
2023-05-20T12:48:37.174Z,10.73
2023-05-20T12:50:41.178Z,10.13
2023-05-20T12:52:44.946Z,10.35
2023-05-20T12:54:48.663Z,9.70
2023-05-20T12:56:52.409Z,10.63
2023-05-20T12:58:58.357Z,12.15
2023-05-20T13:01:02.154Z,10.48
2023-05-20T13:03:06.336Z,12.05
2023-05-20T13:05:10.617Z,10.18
2023-05-20T13:07:14.526Z,10.50
2023-05-20T13:09:18.227Z,11.15
2023-05-20T13:11:22.033Z,10.82
2023-05-20T13:13:25.936Z,10.68
2023-05-20T13:15:33.517Z,10.68
2023-05-20T13:17:38.424Z,11.93
2023-05-20T13:19:42.385Z,11.07
2023-05-20T13:21:46.345Z,10.77
2023-05-20T13:23:50.132Z,12.50
2023-05-20T13:25:54.193Z,10.88
2023-05-20T13:27:58.035Z,11.02
2023-05-20T13:30:02.103Z,9.93
2023-05-20T13:32:07.831Z,10.13
2023-05-20T13:34:11.811Z,10.95
2023-05-20T13:36:15.822Z,11.38
2023-05-20T13:38:19.833Z,14.13
2023-05-20T13:40:24.037Z,9.90
2023-05-20T13:42:27.638Z,9.80
2023-05-20T13:44:32.763Z,10.95
2023-05-20T13:46:37.138Z,10.55
2023-05-20T13:48:42.491Z,9.70
2023-05-20T13:50:46.499Z,10.00
2023-05-20T13:52:50.847Z,9.75
2023-05-20T13:54:55.059Z,10.80
2023-05-20T13:56:58.667Z,10.48
2023-05-20T13:59:02.359Z,9.70
2023-05-20T14:01:06.460Z,10.27
2023-05-20T14:03:10.754Z,9.70
2023-05-20T14:05:17.185Z,9.45
2023-05-20T14:07:20.992Z,10.77
2023-05-20T14:09:24.802Z,13.70
2023-05-20T14:11:28.507Z,10.90
2023-05-20T14:13:32.276Z,10.52
2023-05-20T14:15:36.349Z,11.35
2023-05-20T14:17:40.204Z,10.60
2023-05-20T14:19:43.841Z,11.45
2023-05-20T14:21:48.977Z,11.88
2023-05-20T14:23:53.847Z,10.55
2023-05-20T14:25:57.402Z,12.18
2023-05-20T14:28:01.231Z,10.35
2023-05-20T14:30:05.622Z,10.38
2023-05-20T14:32:11.721Z,10.63
2023-05-20T14:34:15.925Z,12.57
2023-05-20T14:36:19.665Z,10.65
2023-05-20T14:38:25.437Z,10.43
2023-05-20T14:40:29.080Z,10.50
2023-05-20T14:42:32.957Z,10.23
2023-05-20T14:44:36.764Z,10.88
2023-05-20T14:46:40.535Z,9.48
2023-05-20T14:48:44.293Z,10.30
2023-05-20T14:50:49.719Z,10.35
2023-05-20T14:52:53.931Z,12.85
2023-05-20T14:54:59.468Z,11.90
2023-05-20T14:57:04.102Z,11.30
2023-05-20T14:59:07.749Z,9.93
2023-05-20T15:01:11.661Z,9.93
2023-05-20T15:03:15.955Z,10.52
2023-05-20T15:05:19.892Z,10.40
2023-05-20T15:07:23.648Z,9.65
2023-05-20T15:09:27.487Z,18.13
2023-05-20T15:11:32.707Z,10.77
2023-05-20T15:13:38.917Z,10.57
2023-05-20T15:15:44.188Z,10.93
2023-05-20T15:17:48.068Z,10.18
2023-05-20T15:19:51.728Z,10.50
2023-05-20T15:21:55.522Z,10.82
2023-05-20T15:23:59.331Z,10.05
2023-05-20T15:26:02.964Z,10.18
2023-05-20T15:28:08.033Z,10.27
2023-05-20T15:30:19.236Z,11.15
2023-05-20T15:32:29.804Z,10.82
2023-05-20T15:34:39.057Z,10.45
2023-05-20T15:36:48.968Z,9.57
2023-05-20T15:38:57.645Z,10.02
2023-05-20T15:41:08.836Z,12.55
2023-05-20T15:43:20.782Z,10.38
2023-05-20T15:45:31.077Z,10.10
2023-05-20T15:48:29.130Z,9.75
2023-05-20T15:51:08.365Z,10.02
2023-05-20T15:53:30.305Z,9.40
2023-05-20T15:55:53.878Z,10.30
2023-05-20T15:58:15.464Z,10.63
2023-05-20T16:00:49.819Z,9.85
2023-05-20T16:03:06.493Z,10.73
2023-05-20T16:05:18.368Z,10.73
2023-05-20T16:07:35.324Z,10.80
2023-05-20T16:09:48.309Z,10.30
2023-05-20T16:12:00.226Z,9.93
2023-05-20T16:14:16.963Z,11.45
2023-05-20T16:17:22.195Z,10.98
2023-05-20T16:20:22.958Z,10.15
2023-05-20T16:22:36.745Z,9.95
2023-05-20T16:24:58.541Z,9.98
2023-05-20T16:27:38.978Z,9.52
2023-05-20T16:30:03.467Z,10.43
2023-05-20T16:32:13.500Z,10.48
2023-05-20T16:34:23.576Z,10.75
2023-05-20T16:36:50.240Z,11.05
2023-05-20T16:39:00.026Z,10.70
2023-05-20T16:41:29.386Z,10.35
2023-05-20T16:43:49.764Z,11.15
2023-05-20T16:46:03.542Z,11.65
2023-05-20T16:48:17.907Z,10.77
2023-05-20T16:50:35.981Z,11.85
2023-05-20T16:52:48.483Z,10.93
2023-05-20T16:55:01.550Z,10.93
2023-05-20T16:57:16.567Z,10.85
2023-05-20T16:59:36.092Z,11.18
2023-05-20T17:02:08.350Z,11.48
2023-05-20T17:04:29.424Z,11.80
2023-05-20T17:06:59.670Z,11.00
2023-05-20T17:09:52.518Z,11.05
2023-05-20T17:14:28.097Z,12.05
2023-05-20T17:16:32.337Z,10.93
2023-05-20T17:18:39.521Z,11.55
2023-05-20T17:20:43.751Z,11.48
2023-05-20T17:22:47.462Z,11.63
2023-05-20T17:24:51.241Z,11.73
2023-05-20T17:26:56.384Z,12.07
2023-05-20T17:29:00.407Z,12.38
2023-05-20T17:31:04.181Z,13.57
2023-05-20T17:33:08.078Z,12.93
2023-05-20T17:35:11.965Z,12.07
2023-05-20T17:37:16.214Z,12.95
2023-05-20T17:39:19.968Z,13.80
2023-05-20T17:41:23.962Z,11.55
2023-05-20T17:43:29.392Z,13.38
2023-05-20T17:45:33.444Z,13.23
2023-05-20T17:47:37.456Z,12.88
2023-05-20T17:49:41.516Z,11.68
2023-05-20T17:51:46.259Z,12.50
2023-05-20T17:53:50.116Z,13.75
2023-05-20T17:55:53.845Z,14.13
2023-05-20T17:57:58.091Z,13.27
2023-05-20T18:00:05.723Z,12.75
2023-05-20T18:02:10.083Z,13.40
2023-05-20T18:04:14.603Z,13.73
2023-05-20T18:06:18.830Z,13.98
2023-05-20T18:08:22.922Z,14.07
2023-05-20T18:10:26.634Z,14.02
2023-05-20T18:12:31.184Z,13.45
2023-05-20T18:14:34.983Z,14.52
2023-05-20T18:16:40.982Z,15.32
2023-05-20T18:18:44.835Z,17.17
2023-05-20T18:20:48.542Z,13.55
2023-05-20T18:22:58.647Z,13.80
2023-05-20T18:25:02.526Z,14.82
2023-05-20T18:27:06.637Z,15.70
2023-05-20T18:29:10.314Z,15.15
2023-05-20T18:31:14.156Z,14.57
2023-05-20T18:33:19.553Z,14.48
2023-05-20T18:35:23.319Z,14.43
2023-05-20T18:37:28.426Z,15.70
2023-05-20T18:39:32.116Z,15.95
2023-05-20T18:41:46.778Z,15.20
2023-05-20T18:43:54.527Z,16.15
2023-05-20T18:45:58.220Z,15.40
2023-05-20T18:48:01.852Z,15.07
2023-05-20T18:50:08.118Z,15.52
2023-05-20T18:52:12.054Z,15.98
2023-05-20T18:54:16.229Z,14.95
2023-05-20T18:56:20.174Z,15.15
2023-05-20T18:58:23.880Z,15.73
2023-05-20T19:00:27.642Z,16.13
2023-05-20T19:02:31.938Z,16.30
2023-05-20T19:04:35.650Z,15.88
2023-05-20T19:06:40.701Z,16.38
2023-05-20T19:08:44.423Z,18.17
2023-05-20T19:10:47.976Z,16.08
2023-05-20T19:12:51.552Z,17.35
2023-05-20T19:14:55.514Z,17.10
2023-05-20T19:17:01.139Z,17.30
2023-05-20T19:19:05.040Z,17.13
2023-05-20T19:21:08.865Z,17.70
2023-05-20T19:23:14.230Z,17.85
2023-05-20T19:25:18.172Z,17.25
2023-05-20T19:27:21.959Z,20.02
2023-05-20T19:29:25.803Z,17.50
2023-05-20T19:31:29.779Z,16.58
2023-05-20T19:33:33.783Z,18.60
2023-05-20T19:35:42.269Z,17.05
2023-05-20T19:37:45.764Z,17.85
2023-05-20T19:39:53.208Z,17.92
2023-05-20T19:41:56.854Z,17.95
2023-05-20T19:44:00.582Z,21.23
2023-05-20T19:46:04.446Z,17.52
2023-05-20T19:48:08.708Z,18.35
2023-05-20T19:50:12.927Z,17.13
2023-05-20T19:52:16.741Z,17.85
2023-05-20T19:54:20.411Z,17.80
2023-05-20T19:56:25.526Z,16.90
2023-05-20T19:58:29.032Z,17.63
2023-05-20T20:00:32.597Z,17.38
2023-05-20T20:02:36.383Z,17.20
2023-05-20T20:04:40.254Z,16.63
2023-05-20T20:06:43.933Z,17.80
2023-05-20T20:08:47.337Z,18.25
2023-05-20T20:10:51.392Z,17.98
2023-05-20T20:12:56.764Z,17.63
2023-05-20T20:15:00.419Z,16.98
2023-05-20T20:17:04.072Z,19.30
2023-05-20T20:19:08.292Z,22.13
2023-05-20T20:21:11.865Z,19.98
2023-05-20T20:23:15.541Z,17.45
2023-05-20T20:25:20.537Z,17.77
2023-05-20T20:27:24.194Z,17.85
2023-05-20T20:29:29.188Z,18.52
2023-05-20T20:31:33.050Z,18.55
2023-05-20T20:33:36.843Z,18.98
2023-05-20T20:35:40.663Z,17.70
2023-05-20T20:37:44.859Z,19.27
2023-05-20T20:39:50.138Z,20.70
2023-05-20T20:41:54.771Z,18.63
2023-05-20T20:43:58.316Z,17.52
2023-05-20T20:46:03.610Z,18.00
2023-05-20T20:48:08.316Z,17.52
2023-05-20T20:50:12.866Z,17.52
2023-05-20T20:52:16.671Z,17.55
2023-05-20T20:54:20.343Z,18.85
2023-05-20T20:56:23.917Z,19.08
2023-05-20T20:58:27.956Z,19.58
2023-05-20T21:00:31.629Z,17.30
2023-05-20T21:02:36.852Z,17.33
2023-05-20T21:04:41.493Z,19.38
2023-05-20T21:06:46.189Z,17.05
2023-05-20T21:08:49.893Z,18.48
2023-05-20T21:10:54.953Z,21.45
2023-05-20T21:12:58.859Z,17.60
2023-05-20T21:15:02.384Z,17.77
2023-05-20T21:17:06.169Z,17.52
2023-05-20T21:19:11.447Z,21.60
2023-05-20T21:21:20.462Z,16.88
2023-05-20T21:23:24.156Z,17.55
2023-05-20T21:25:27.792Z,18.20
2023-05-20T21:27:31.316Z,18.30
2023-05-20T21:29:35.417Z,18.02
2023-05-20T21:31:39.501Z,18.58
2023-05-20T21:33:43.208Z,17.13
2023-05-20T21:35:48.212Z,17.98
2023-05-20T21:37:52.123Z,17.73
2023-05-20T21:39:55.613Z,17.55
2023-05-20T21:41:59.499Z,17.98
2023-05-20T21:44:03.355Z,17.85
2023-05-20T21:46:08.071Z,17.63
2023-05-20T21:48:13.951Z,16.02
2023-05-20T21:50:17.727Z,18.77
2023-05-20T21:52:22.571Z,19.35
2023-05-20T21:54:26.303Z,17.42
2023-05-20T21:56:29.861Z,17.13
2023-05-20T21:58:33.427Z,17.15
2023-05-20T22:00:37.152Z,17.33
2023-05-20T22:02:40.706Z,18.52
2023-05-20T22:04:44.276Z,20.23
2023-05-20T22:06:47.911Z,16.85
2023-05-20T22:08:52.840Z,18.92
2023-05-20T22:10:56.486Z,17.10
2023-05-20T22:13:01.783Z,17.42
2023-05-20T22:15:05.985Z,17.52
2023-05-20T22:17:10.720Z,16.17
2023-05-20T22:19:15.390Z,17.02
2023-05-20T22:21:20.032Z,17.33
2023-05-20T22:23:23.567Z,18.85
2023-05-20T22:25:29.081Z,18.27
2023-05-20T22:27:32.901Z,16.20
2023-05-20T22:29:36.492Z,16.60
2023-05-20T22:31:40.177Z,19.95
2023-05-20T22:33:43.783Z,17.40
2023-05-20T22:35:47.767Z,17.73
2023-05-20T22:37:51.403Z,17.63
2023-05-20T22:39:55.170Z,17.25
2023-05-20T22:42:00.164Z,16.70
2023-05-20T22:44:03.944Z,16.73
2023-05-20T22:46:08.359Z,16.55
2023-05-20T22:48:12.700Z,16.38
2023-05-20T22:50:16.535Z,19.08
2023-05-20T22:52:21.482Z,16.05
2023-05-20T22:54:25.330Z,17.77
2023-05-20T22:56:29.848Z,16.65
2023-05-20T22:58:39.663Z,17.20
2023-05-20T23:00:44.601Z,16.13
2023-05-20T23:02:50.210Z,19.45
2023-05-20T23:04:54.125Z,16.77
2023-05-20T23:06:59.472Z,16.33
2023-05-20T23:09:04.579Z,16.60
2023-05-20T23:11:08.148Z,19.08
2023-05-20T23:13:11.736Z,17.48
2023-05-20T23:15:17.208Z,18.88
2023-05-20T23:17:20.823Z,16.90
2023-05-20T23:19:24.310Z,17.23
2023-05-20T23:21:27.914Z,18.17
2023-05-20T23:23:32.320Z,17.55
2023-05-20T23:25:36.139Z,15.95
2023-05-20T23:27:39.750Z,15.85
2023-05-20T23:29:44.590Z,17.17
2023-05-20T23:31:50.985Z,16.67
2023-05-20T23:33:54.693Z,18.35
2023-05-20T23:35:58.243Z,16.52
2023-05-20T23:38:01.635Z,17.55
2023-05-20T23:40:09.293Z,16.40
2023-05-20T23:42:12.735Z,15.55
2023-05-20T23:44:16.268Z,19.90
2023-05-20T23:46:20.173Z,16.13
2023-05-20T23:48:26.555Z,15.95
2023-05-20T23:50:30.459Z,16.52
2023-05-20T23:52:34.130Z,15.90
2023-05-20T23:54:37.834Z,16.90
2023-05-20T23:56:41.419Z,16.30
2023-05-20T23:58:44.955Z,16.13
